createdAt,value
2019-06-10T08:34:22.531Z,1014.4
2019-06-10T08:39:59.602Z,1014.3
2019-06-10T08:42:54.849Z,1014.2
2019-06-10T08:48:29.842Z,1014.2
2019-06-10T08:54:08.204Z,1014.1
2019-06-10T08:59:49.628Z,1014
2019-06-10T09:05:32.755Z,1013.9
2019-06-10T09:11:13.554Z,1014
2019-06-10T09:16:54.760Z,1013.9
2019-06-10T09:22:33.223Z,1013.9
2019-06-10T09:28:13.130Z,1014
2019-06-10T09:33:57.413Z,1014
2019-06-10T09:39:36.195Z,1014
2019-06-10T09:45:15.117Z,1014
2019-06-10T09:51:02.259Z,1013.9
2019-06-10T09:56:54.188Z,1013.9
2019-06-10T10:02:33.517Z,1013.8
2019-06-10T10:08:13.090Z,1013.8
2019-06-10T10:13:54.984Z,1013.7
2019-06-10T10:19:33.567Z,1013.6
2019-06-10T10:25:56.268Z,1013.6
2019-06-10T10:31:36.143Z,1013.5
2019-06-10T10:37:14.596Z,1013.7
2019-06-10T10:43:32.615Z,1013.5
2019-06-10T10:49:17.303Z,1013.4
2019-06-10T10:55:04.178Z,1013.4
2019-06-10T11:00:57.543Z,1013.2
2019-06-10T11:06:36.963Z,1013.3
2019-06-10T11:12:17.332Z,1013.2
2019-06-10T11:17:58.564Z,1013.2
2019-06-10T11:23:37.000Z,1013.2
2019-06-10T11:29:17.784Z,1013
2019-06-10T11:34:58.785Z,1013
2019-06-10T11:40:37.711Z,1012.9
2019-06-10T11:46:16.507Z,1013
2019-06-10T11:51:59.811Z,1012.8
2019-06-10T11:57:38.333Z,1012.7
2019-06-10T12:03:17.112Z,1012.6
2019-06-10T12:09:03.201Z,1012.6
2019-06-10T12:14:43.454Z,1012.5
2019-06-10T12:20:23.344Z,1012.4
2019-06-10T12:26:07.068Z,1012.4
2019-06-10T12:31:45.606Z,1012.4
2019-06-10T12:37:27.388Z,1012.3
2019-06-10T12:43:08.080Z,1012.2
2019-06-10T12:48:46.628Z,1012.2
2019-06-10T12:54:25.404Z,1012.1
2019-06-10T13:00:26.481Z,1011.9
2019-06-10T13:06:12.689Z,1011.8
2019-06-10T13:11:53.664Z,1011.7
2019-06-10T13:17:31.939Z,1011.7
2019-06-10T13:23:34.977Z,1011.8
2019-06-10T13:29:18.145Z,1011.7
2019-06-10T13:34:58.168Z,1011.7
2019-06-10T13:40:37.097Z,1011.8
2019-06-10T13:46:15.502Z,1011.8
2019-06-10T13:51:53.807Z,1011.7
2019-06-10T13:58:15.017Z,1011.7
2019-06-10T14:03:54.270Z,1011.8
2019-06-10T14:09:33.315Z,1011.8
2019-06-10T14:15:17.504Z,1011.6
2019-06-10T14:20:56.268Z,1011.8
2019-06-10T14:26:45.823Z,1011.7
2019-06-10T14:32:24.758Z,1011.8
2019-06-10T14:38:08.019Z,1011.8
2019-06-10T14:43:46.934Z,1011.6
2019-06-10T14:49:25.588Z,1011.5
2019-06-10T14:55:07.071Z,1011.6
2019-06-10T15:00:54.103Z,1011.5
2019-06-10T15:06:34.303Z,1011.4
2019-06-10T15:12:17.747Z,1011.4
2019-06-10T15:17:56.547Z,1011.3
2019-06-10T15:23:34.893Z,1011.2
2019-06-10T15:29:20.106Z,1011.4
2019-06-10T15:34:59.060Z,1011.3
2019-06-10T15:40:37.647Z,1011.3
2019-06-10T15:46:20.982Z,1011.2
2019-06-10T15:51:59.765Z,1011.1
2019-06-10T15:57:46.730Z,1011.3
2019-06-10T16:03:26.234Z,1011.6
2019-06-10T16:09:04.683Z,1011.5
2019-06-10T16:14:43.321Z,1011.5
2019-06-10T16:20:23.694Z,1012.1
2019-06-10T16:26:03.054Z,1012.2
2019-06-10T16:31:42.924Z,1012.3
2019-06-10T16:37:27.075Z,1012.1
2019-06-10T16:43:11.351Z,1012.2
2019-06-10T16:48:53.079Z,1012.2
2019-06-10T16:55:12.906Z,1012
2019-06-10T17:00:51.813Z,1011.9
2019-06-10T17:06:33.019Z,1012.1
2019-06-10T17:12:18.289Z,1012.1
2019-06-10T17:17:58.506Z,1012
2019-06-10T17:23:37.113Z,1011.9
2019-06-10T17:29:15.738Z,1012.1
2019-06-10T17:34:54.412Z,1011.9
2019-06-10T17:40:34.165Z,1011.9
2019-06-10T17:46:12.861Z,1012
2019-06-10T17:51:52.869Z,1012.1
2019-06-10T17:57:36.418Z,1012.1
2019-06-10T18:03:15.053Z,1012.1
2019-06-10T18:08:53.685Z,1012.4
2019-06-10T18:14:36.637Z,1012.4
2019-06-10T18:20:15.194Z,1012.5
2019-06-10T18:25:57.172Z,1012.6
2019-06-10T18:31:37.333Z,1012.7
2019-06-10T18:37:15.799Z,1012.7
2019-06-10T18:42:54.311Z,1012.7
2019-06-10T18:48:39.953Z,1012.8
2019-06-10T18:54:22.849Z,1012.7
2019-06-10T19:00:14.831Z,1012.6
2019-06-10T19:05:53.949Z,1012.4
2019-06-10T19:11:38.749Z,1012.4
2019-06-10T19:17:23.508Z,1012.5
2019-06-10T19:23:02.846Z,1012.4
2019-06-10T19:28:45.692Z,1012.3
2019-06-10T19:34:24.719Z,1012.5
2019-06-10T19:40:03.225Z,1012.4
2019-06-10T19:45:46.859Z,1012.4
2019-06-10T19:51:36.114Z,1012.3
2019-06-10T19:57:25.818Z,1012.2
2019-06-10T20:03:04.166Z,1012.2
2019-06-10T20:08:46.459Z,1012.2
2019-06-10T20:14:25.033Z,1012.2
2019-06-10T20:20:03.669Z,1012.3
2019-06-10T20:25:47.166Z,1012.4
2019-06-10T20:31:27.402Z,1012.3
2019-06-10T20:37:05.840Z,1012.5
2019-06-10T20:42:44.707Z,1012.6
2019-06-10T20:48:24.974Z,1012.6
2019-06-10T20:54:03.291Z,1012.6
2019-06-10T20:59:49.771Z,1012.7
2019-06-10T21:05:28.689Z,1012.6
2019-06-10T21:11:09.982Z,1012.7
2019-06-10T21:16:53.933Z,1012.6
2019-06-10T21:22:32.866Z,1012.5
2019-06-10T21:28:13.344Z,1012.5
